Time;durP1;ratioP1;P1;durP2;ratioP2;P2;SDS_P1;SDS_P2;PMS_P1;PMS_P2;Temp;Humidity;BMP_temperature;BMP_pressure;BME280_temperature;BME280_humidity;BME280_pressure;Samples;Min_cycle;Max_cycle;Signal;HPM_P1;HPM_P2
2021/09/12 00:00:22;;;;;;;7.03;5.10;;;;;;;19.20;87.70;96611.25;4974841;28;20594;-62
2021/09/12 00:02:48;;;;;;;4.80;4.40;;;;;;;19.16;87.58;96604.88;4993182;28;20185;-66
2021/09/12 00:05:13;;;;;;;6.63;5.40;;;;;;;19.15;87.48;96607.84;4994932;28;20439;-66
2021/09/12 00:07:38;;;;;;;5.07;4.67;;;;;;;19.12;87.72;96603.84;4994875;28;20177;-62
2021/09/12 00:10:08;;;;;;;5.37;4.97;;;;;;;19.13;87.20;96609.97;4994845;28;20224;-62
2021/09/12 00:12:33;;;;;;;5.17;4.77;;;;;;;19.06;87.19;96612.91;4994592;28;20180;-66
2021/09/12 00:15:01;;;;;;;5.50;5.00;;;;;;;19.06;87.59;96609.47;4975362;28;20437;-65
2021/09/12 00:17:27;;;;;;;4.53;4.23;;;;;;;19.06;87.84;96606.81;4973887;28;20229;-62
2021/09/12 00:19:52;;;;;;;5.70;5.30;;;;;;;19.07;87.27;96603.06;4973748;28;20830;-66
2021/09/12 00:22:18;;;;;;;5.47;5.00;;;;;;;19.04;87.51;96600.94;4973957;28;20536;-66
2021/09/12 00:24:43;;;;;;;4.93;4.20;;;;;;;19.06;87.38;96599.59;4974454;28;20201;-62
2021/09/12 00:27:09;;;;;;;5.33;4.93;;;;;;;19.05;87.30;96602.53;4974700;28;20178;-62
2021/09/12 00:29:34;;;;;;;5.23;4.73;;;;;;;19.04;87.05;96600.94;4974836;28;20229;-66
2021/09/12 00:32:00;;;;;;;4.90;4.37;;;;;;;18.97;87.51;96600.44;4974947;28;20221;-66
2021/09/12 00:34:26;;;;;;;4.97;4.50;;;;;;;18.91;87.63;96606.84;4974700;28;20445;-66
2021/09/12 00:36:51;;;;;;;4.67;4.30;;;;;;;18.94;87.44;96600.97;4974666;28;20186;-66
2021/09/12 00:39:16;;;;;;;5.10;4.70;;;;;;;18.93;87.22;96605.50;4974948;28;20652;-62
2021/09/12 00:41:44;;;;;;;4.47;4.07;;;;;;;18.96;87.29;96594.31;4974751;28;20175;-66
2021/09/12 00:44:12;;;;;;;10.10;4.40;;;;;;;18.96;87.22;96604.16;4974429;28;20181;-62
2021/09/12 00:46:47;;;;;;;4.90;4.40;;;;;;;18.88;87.36;96596.75;4974754;28;20512;-66
2021/09/12 00:49:13;;;;;;;5.17;4.67;;;;;;;18.88;87.11;96594.88;4974674;28;20453;-62
2021/09/12 00:51:39;;;;;;;5.10;4.50;;;;;;;18.87;86.97;96589.81;4985983;28;20834;-65
2021/09/12 00:54:06;;;;;;;5.10;4.70;;;;;;;18.92;87.03;96592.44;4974349;28;20456;-66
2021/09/12 00:56:37;;;;;;;4.90;4.60;;;;;;;18.91;86.42;96604.19;4974608;28;20232;-61
2021/09/12 00:59:06;;;;;;;5.53;5.03;;;;;;;18.88;86.67;96592.19;4974547;28;20410;-62
2021/09/12 01:01:33;;;;;;;4.60;4.20;;;;;;;18.84;86.98;96598.34;4974446;28;20419;-62
2021/09/12 01:03:59;;;;;;;4.80;4.40;;;;;;;18.84;86.54;96601.78;4973404;28;20782;-62
2021/09/12 01:06:24;;;;;;;4.97;4.57;;;;;;;18.86;86.15;96593.56;4974108;28;20476;-66
2021/09/12 01:08:50;;;;;;;7.43;4.30;;;;;;;18.85;86.28;96594.63;4974464;28;20892;-62
2021/09/12 01:11:15;;;;;;;5.03;4.50;;;;;;;18.86;86.52;96594.34;4974630;28;20498;-62
2021/09/12 01:13:42;;;;;;;5.00;4.53;;;;;;;18.86;86.24;96591.66;4974105;28;20296;-61
2021/09/12 01:16:10;;;;;;;4.10;3.83;;;;;;;18.82;86.04;96585.31;4974586;28;20244;-61
2021/09/12 01:18:35;;;;;;;4.60;4.20;;;;;;;18.82;85.48;96587.19;4974341;28;20414;-66
2021/09/12 01:21:00;;;;;;;5.00;4.20;;;;;;;18.85;85.05;96581.28;4974026;28;20421;-62
2021/09/12 01:23:26;;;;;;;4.73;4.40;;;;;;;18.80;85.46;96583.97;4974045;28;20174;-62
2021/09/12 01:25:55;;;;;;;4.60;4.20;;;;;;;18.69;86.30;96582.41;4973045;28;20198;-67
2021/09/12 01:28:20;;;;;;;7.17;4.50;;;;;;;18.66;86.29;96585.63;4974269;28;20224;-62
2021/09/12 01:30:45;;;;;;;4.63;4.33;;;;;;;18.65;86.25;96578.69;4973663;28;21054;-63
2021/09/12 01:33:11;;;;;;;8.37;4.77;;;;;;;18.63;86.44;96578.16;4973955;28;20175;-62
2021/09/12 01:35:36;;;;;;;4.37;4.07;;;;;;;18.63;85.57;96583.50;4974164;28;20594;-63
2021/09/12 01:38:01;;;;;;;5.23;4.20;;;;;;;18.58;86.13;96579.00;4974392;28;20190;-67
2021/09/12 01:40:27;;;;;;;4.30;4.00;;;;;;;18.58;85.65;96583.50;4974065;28;20184;-62
2021/09/12 01:42:52;;;;;;;4.97;4.47;;;;;;;18.51;86.09;96585.66;4974180;28;20170;-67
2021/09/12 01:45:18;;;;;;;6.97;3.93;;;;;;;18.52;85.85;96588.06;4974289;28;20284;-67
2021/09/12 01:47:46;;;;;;;4.50;4.10;;;;;;;18.53;85.65;96580.88;4974085;28;20174;-62
2021/09/12 01:50:12;;;;;;;6.17;4.37;;;;;;;18.51;85.70;96583.00;4981465;28;20457;-67
2021/09/12 01:52:37;;;;;;;4.90;4.50;;;;;;;18.46;85.80;96578.50;4993083;28;20408;-66
2021/09/12 01:55:03;;;;;;;5.97;4.57;;;;;;;18.45;85.50;96583.03;4990271;28;20489;-67
2021/09/12 01:57:28;;;;;;;4.43;4.13;;;;;;;18.41;86.18;96581.16;4973912;28;20534;-67
2021/09/12 01:59:53;;;;;;;5.17;4.77;;;;;;;18.40;86.29;96575.03;4973830;28;20170;-63
2021/09/12 02:02:19;;;;;;;5.60;4.23;;;;;;;18.36;86.27;96575.81;4974057;28;20229;-62
2021/09/12 02:04:44;;;;;;;4.80;4.47;;;;;;;18.35;86.37;96575.00;4973519;28;20190;-66
2021/09/12 02:07:09;;;;;;;5.07;4.67;;;;;;;18.34;86.90;96581.41;4974143;28;20170;-67
2021/09/12 02:09:35;;;;;;;5.20;4.87;;;;;;;18.30;86.99;96579.53;4973710;28;20206;-67
2021/09/12 02:12:00;;;;;;;6.60;4.47;;;;;;;18.33;86.45;96577.13;4974061;28;20234;-63
2021/09/12 02:14:26;;;;;;;4.90;3.90;;;;;;;18.32;86.06;96586.19;4973590;28;20173;-62
2021/09/12 02:16:51;;;;;;;4.70;4.30;;;;;;;18.33;86.02;96585.13;4976718;28;20178;-67
2021/09/12 02:19:17;;;;;;;5.03;4.63;;;;;;;18.26;86.13;96581.94;4977335;28;20249;-66
2021/09/12 02:21:42;;;;;;;4.97;4.50;;;;;;;18.27;86.11;96586.22;4977377;28;20573;-62
2021/09/12 02:24:07;;;;;;;4.40;4.10;;;;;;;18.28;85.45;96582.47;4976982;28;20197;-61
2021/09/12 02:26:33;;;;;;;4.37;4.07;;;;;;;18.29;84.83;96583.28;4976800;28;20278;-60
2021/09/12 02:28:59;;;;;;;4.10;3.70;;;;;;;18.26;84.59;96576.63;4975980;28;20181;-60
2021/09/12 02:31:25;;;;;;;4.30;4.00;;;;;;;18.24;84.63;96580.63;4977053;28;20469;-64
2021/09/12 02:33:50;;;;;;;4.30;4.00;;;;;;;18.13;84.99;96577.19;4976601;28;20162;-64
2021/09/12 02:36:15;;;;;;;4.87;4.47;;;;;;;18.12;84.83;96570.25;4976621;28;20599;-64
2021/09/12 02:38:42;;;;;;;7.93;4.33;;;;;;;18.04;84.51;96565.50;4976941;28;20181;-59
2021/09/12 02:41:07;;;;;;;5.10;4.70;;;;;;;18.07;83.82;96564.94;4977015;28;20159;-64
2021/09/12 02:43:33;;;;;;;5.20;4.70;;;;;;;18.07;84.40;96559.63;4976570;28;20416;-60
2021/09/12 02:45:58;;;;;;;4.17;3.80;;;;;;;18.04;84.43;96560.19;4976624;28;20236;-60
2021/09/12 02:48:24;;;;;;;4.63;4.33;;;;;;;18.01;84.58;96563.34;4976988;28;20174;-61
2021/09/12 02:50:49;;;;;;;5.30;4.90;;;;;;;17.97;84.95;96554.31;4989340;28;20567;-60
2021/09/12 02:53:15;;;;;;;4.93;4.37;;;;;;;17.97;84.79;96558.84;4976025;28;20309;-64
2021/09/12 02:55:40;;;;;;;4.80;4.50;;;;;;;17.93;84.87;96561.25;4976867;28;20194;-65
2021/09/12 02:58:05;;;;;;;5.17;4.73;;;;;;;17.94;84.99;96559.34;4976998;28;20519;-60
2021/09/12 03:00:31;;;;;;;4.80;4.33;;;;;;;17.93;84.87;96561.25;4976628;28;20217;-64
2021/09/12 03:02:56;;;;;;;4.90;4.43;;;;;;;17.91;85.04;96563.38;4976239;28;20174;-61
2021/09/12 03:05:22;;;;;;;7.20;4.50;;;;;;;17.91;84.41;96562.56;4976502;28;20218;-60
2021/09/12 03:07:48;;;;;;;4.57;4.10;;;;;;;17.89;84.06;96562.84;4975984;28;20179;-60
2021/09/12 03:10:13;;;;;;;4.40;4.10;;;;;;;17.82;84.39;96570.28;4976479;28;20465;-60
2021/09/12 03:12:38;;;;;;;5.60;5.10;;;;;;;17.82;84.26;96566.81;4976132;28;20229;-61
2021/09/12 03:15:05;;;;;;;4.80;4.20;;;;;;;17.79;84.45;96573.44;4976286;28;20229;-60
2021/09/12 03:17:30;;;;;;;4.30;4.00;;;;;;;17.76;84.81;96571.34;4976381;28;20274;-61
2021/09/12 03:19:56;;;;;;;5.37;4.70;;;;;;;17.79;83.59;96570.78;4976729;28;20489;-60
2021/09/12 03:22:22;;;;;;;5.70;4.90;;;;;;;17.72;84.07;96564.16;4975913;28;20178;-64
2021/09/12 03:24:47;;;;;;;5.40;4.90;;;;;;;17.70;84.30;96564.41;4975886;28;20221;-60
2021/09/12 03:27:12;;;;;;;6.70;4.80;;;;;;;17.61;84.69;96562.56;4975391;28;20205;-65
2021/09/12 03:29:38;;;;;;;5.20;4.80;;;;;;;17.48;85.34;96565.72;4976106;28;20673;-65
2021/09/12 03:32:04;;;;;;;4.60;4.30;;;;;;;17.42;86.38;96568.34;4976216;28;20181;-60
2021/09/12 03:34:29;;;;;;;4.80;4.50;;;;;;;17.45;85.63;96559.03;4975515;28;20261;-64
2021/09/12 03:36:55;;;;;;;4.40;4.10;;;;;;;17.48;85.50;96553.25;4974317;28;20516;-64
2021/09/12 03:39:21;;;;;;;4.20;3.90;;;;;;;17.49;85.62;96557.50;4975996;28;20162;-65
2021/09/12 03:41:46;;;;;;;5.43;4.20;;;;;;;17.46;85.40;96550.03;4976058;28;20413;-64
2021/09/12 03:44:12;;;;;;;4.77;4.37;;;;;;;17.50;84.85;96550.31;4975547;28;20174;-65
2021/09/12 03:46:37;;;;;;;4.93;4.53;;;;;;;17.52;84.33;96551.63;4975871;28;20204;-64
2021/09/12 03:49:03;;;;;;;4.70;4.00;;;;;;;17.51;84.32;96551.91;4975637;28;20181;-65
2021/09/12 03:51:28;;;;;;;4.87;4.27;;;;;;;17.44;84.73;96549.50;4975316;28;20186;-65
2021/09/12 03:53:54;;;;;;;4.27;3.97;;;;;;;17.40;84.67;96553.72;4975261;28;20170;-60
2021/09/12 03:56:19;;;;;;;3.80;3.50;;;;;;;17.31;85.55;96553.47;4975637;28;20229;-60
2021/09/12 03:58:44;;;;;;;3.83;3.53;;;;;;;17.26;85.55;96552.66;4975798;28;20173;-60
2021/09/12 04:01:10;;;;;;;4.70;4.30;;;;;;;17.28;85.81;96553.19;4975450;28;20188;-61
2021/09/12 04:03:35;;;;;;;3.33;3.13;;;;;;;17.23;86.08;96553.16;4975114;28;20532;-60
2021/09/12 04:06:00;;;;;;;4.07;3.77;;;;;;;17.20;85.85;96548.38;4975077;28;20657;-60
2021/09/12 04:08:26;;;;;;;3.57;3.37;;;;;;;17.27;85.32;96548.91;4975541;28;20174;-67
2021/09/12 04:10:51;;;;;;;3.97;3.67;;;;;;;17.33;84.52;96548.69;4975541;28;20204;-67
2021/09/12 04:13:17;;;;;;;4.10;3.80;;;;;;;17.34;84.15;96544.94;4974979;28;20590;-67
2021/09/12 04:15:42;;;;;;;4.80;4.40;;;;;;;17.33;84.46;96553.19;4975390;28;20269;-67
2021/09/12 04:18:07;;;;;;;4.00;3.70;;;;;;;17.24;84.62;96552.09;4975725;28;20626;-67
2021/09/12 04:20:33;;;;;;;4.13;3.73;;;;;;;17.26;84.18;96555.31;4974877;28;20257;-67
2021/09/12 04:22:58;;;;;;;5.03;3.47;;;;;;;17.27;84.25;96554.22;4974302;28;20263;-63
2021/09/12 04:25:23;;;;;;;4.70;3.83;;;;;;;17.30;84.03;96549.19;4974972;28;20225;-63
2021/09/12 04:27:49;;;;;;;4.77;4.00;;;;;;;17.30;84.02;96551.06;4975117;28;20178;-67
2021/09/12 04:30:15;;;;;;;4.17;3.87;;;;;;;17.31;83.83;96544.69;4975140;28;20198;-67
2021/09/12 04:32:40;;;;;;;4.10;3.80;;;;;;;17.29;83.66;96546.78;4974851;28;20186;-63
2021/09/12 04:35:06;;;;;;;4.67;4.27;;;;;;;17.17;83.63;96549.72;4974709;28;20573;-67
2021/09/12 04:37:32;;;;;;;5.97;4.07;;;;;;;17.16;83.78;96555.25;4974795;28;20186;-67
2021/09/12 04:39:57;;;;;;;4.73;4.07;;;;;;;17.20;83.30;96551.03;4974838;28;20682;-63
2021/09/12 04:42:23;;;;;;;4.63;4.23;;;;;;;17.20;83.35;96557.16;4975092;28;20181;-63
2021/09/12 04:44:48;;;;;;;4.50;4.07;;;;;;;17.16;83.62;96556.06;4974073;28;20213;-63
2021/09/12 04:47:13;;;;;;;4.77;4.10;;;;;;;17.17;83.61;96552.38;4974893;28;20213;-63
2021/09/12 04:49:40;;;;;;;4.50;4.20;;;;;;;17.20;83.42;96559.00;4975118;28;20240;-62
2021/09/12 04:52:06;;;;;;;5.70;3.87;;;;;;;17.16;83.19;96558.72;4974988;28;20170;-67
2021/09/12 04:54:31;;;;;;;5.17;4.67;;;;;;;17.09;84.15;96560.03;4974363;28;20410;-63
2021/09/12 04:56:57;;;;;;;4.67;4.27;;;;;;;17.02;84.20;96560.28;4974406;28;20261;-63
2021/09/12 04:59:22;;;;;;;4.73;4.33;;;;;;;16.93;85.06;96558.38;4974845;28;20177;-63
2021/09/12 05:01:47;;;;;;;3.90;3.60;;;;;;;16.90;85.10;96564.22;4974816;28;20181;-63
2021/09/12 05:04:13;;;;;;;4.50;4.20;;;;;;;16.93;84.70;96561.84;4974292;28;20581;-67
2021/09/12 05:06:38;;;;;;;4.57;4.17;;;;;;;16.83;85.39;96571.63;4974628;28;20181;-63
2021/09/12 05:09:04;;;;;;;4.17;3.77;;;;;;;16.82;85.45;96562.88;4974587;28;20178;-63
2021/09/12 05:11:29;;;;;;;6.27;3.80;;;;;;;16.81;85.42;96573.75;4974285;28;20605;-68
2021/09/12 05:13:54;;;;;;;4.27;3.97;;;;;;;16.81;85.61;96560.47;4974156;28;20589;-68
2021/09/12 05:16:20;;;;;;;4.20;3.83;;;;;;;16.85;85.59;96570.28;4976274;28;20197;-63
2021/09/12 05:18:45;;;;;;;5.30;4.90;;;;;;;16.88;85.31;96566.34;4993840;28;20183;-67
2021/09/12 05:21:11;;;;;;;4.37;4.07;;;;;;;16.86;84.95;96571.09;4993904;28;20212;-68
2021/09/12 05:23:37;;;;;;;3.97;3.63;;;;;;;16.85;85.18;96569.53;4993507;28;20166;-63
2021/09/12 05:26:02;;;;;;;4.87;4.30;;;;;;;16.85;85.47;96572.94;4990589;28;20514;-68
2021/09/12 05:28:28;;;;;;;4.27;3.87;;;;;;;16.78;86.03;96575.06;4974583;28;20173;-68
2021/09/12 05:30:53;;;;;;;5.10;4.70;;;;;;;16.86;85.28;96577.22;4974453;28;20198;-63
2021/09/12 05:33:18;;;;;;;4.97;4.57;;;;;;;16.82;85.71;96577.97;4973998;28;20256;-63
2021/09/12 05:35:44;;;;;;;4.60;4.10;;;;;;;16.75;86.13;96574.78;4974290;28;20205;-68
2021/09/12 05:38:10;;;;;;;3.63;3.37;;;;;;;16.74;86.11;96571.31;4974241;28;20186;-63
2021/09/12 05:40:35;;;;;;;4.20;3.90;;;;;;;16.79;85.64;96568.69;4974295;28;20257;-64
2021/09/12 05:43:01;;;;;;;4.30;4.00;;;;;;;16.89;85.03;96574.03;4974015;28;20189;-63
2021/09/12 05:45:26;;;;;;;5.40;4.50;;;;;;;16.91;84.84;96568.47;4974171;28;20197;-68
2021/09/12 05:47:52;;;;;;;5.03;4.50;;;;;;;16.90;85.80;96574.84;4974178;28;20174;-68
2021/09/12 05:50:18;;;;;;;4.33;4.03;;;;;;;16.87;86.13;96580.66;4974967;28;20206;-68
2021/09/12 05:52:43;;;;;;;4.47;4.17;;;;;;;16.92;85.93;96580.69;4977687;28;20177;-68
2021/09/12 05:55:09;;;;;;;4.03;3.73;;;;;;;16.89;86.51;96573.22;4977766;28;20280;-63
2021/09/12 05:57:34;;;;;;;4.10;3.77;;;;;;;16.90;86.84;96583.63;4977527;28;20182;-63
2021/09/12 06:00:00;;;;;;;4.50;4.20;;;;;;;16.85;87.19;96574.84;4977861;28;20406;-68
2021/09/12 06:02:26;;;;;;;5.00;4.60;;;;;;;16.83;88.08;96576.94;4977943;28;20620;-68
2021/09/12 06:04:51;;;;;;;5.27;4.23;;;;;;;16.83;88.75;96572.41;4977314;28;20230;-68
2021/09/12 06:07:17;;;;;;;4.37;3.97;;;;;;;16.88;89.26;96577.75;4978176;28;20229;-68
2021/09/12 06:09:43;;;;;;;4.87;4.50;;;;;;;16.96;89.20;96573.78;4977600;28;20201;-68
2021/09/12 06:12:09;;;;;;;4.00;3.67;;;;;;;17.05;88.89;96583.66;4977448;28;20421;-62
2021/09/12 06:14:35;;;;;;;4.63;4.23;;;;;;;17.09;89.07;96589.25;4975747;28;20198;-63
2021/09/12 06:17:05;;;;;;;4.97;4.57;;;;;;;17.15;88.95;96582.91;4977342;28;20413;-63
2021/09/12 06:19:35;;;;;;;6.53;4.10;;;;;;;17.16;89.29;96577.31;4977572;28;20420;-61
2021/09/12 06:22:01;;;;;;;4.40;4.00;;;;;;;17.23;89.34;96585.03;4977434;28;20485;-66
2021/09/12 06:24:26;;;;;;;4.80;4.17;;;;;;;17.29;89.47;96579.47;4977024;28;20976;-66
2021/09/12 06:26:52;;;;;;;5.50;5.10;;;;;;;17.35;89.71;96580.28;4976624;28;20779;-66
2021/09/12 06:29:18;;;;;;;5.37;4.87;;;;;;;17.39;90.07;96584.03;4977213;28;20202;-67
2021/09/12 06:31:43;;;;;;;6.97;5.80;;;;;;;17.45;90.13;96578.44;4977133;28;20256;-67
2021/09/12 06:34:08;;;;;;;5.97;5.47;;;;;;;17.53;90.49;96571.03;4976734;28;20174;-67
2021/09/12 06:36:34;;;;;;;5.30;4.90;;;;;;;17.51;91.25;96573.97;4976838;28;20210;-61
2021/09/12 06:38:59;;;;;;;5.10;4.60;;;;;;;17.56;91.46;96579.28;4977147;28;20587;-61
2021/09/12 06:41:25;;;;;;;4.53;4.23;;;;;;;17.62;91.49;96572.94;4977006;28;20201;-62
2021/09/12 06:43:50;;;;;;;5.97;5.47;;;;;;;17.68;91.61;96565.75;4976418;28;20591;-66
2021/09/12 06:46:15;;;;;;;5.03;4.63;;;;;;;17.78;91.21;96579.03;4976847;28;20198;-61
2021/09/12 06:48:41;;;;;;;6.77;4.97;;;;;;;17.83;91.31;96579.03;4976899;28;20174;-66
2021/09/12 06:51:06;;;;;;;5.70;5.20;;;;;;;17.87;91.21;96583.56;4976796;28;20213;-61
2021/09/12 06:53:32;;;;;;;5.90;5.50;;;;;;;17.94;91.32;96584.09;4976555;28;20539;-67
2021/09/12 06:55:57;;;;;;;4.93;4.53;;;;;;;18.00;91.44;96583.03;4976600;28;20201;-68
2021/09/12 06:58:23;;;;;;;4.80;4.40;;;;;;;18.07;90.58;96590.75;4976384;28;20182;-63
2021/09/12 07:00:48;;;;;;;7.93;4.50;;;;;;;18.13;90.44;96589.69;4976722;28;20185;-62
2021/09/12 07:03:13;;;;;;;5.50;3.93;;;;;;;18.13;90.58;96589.69;4975187;28;20182;-67
2021/09/12 07:05:39;;;;;;;5.03;4.73;;;;;;;18.22;90.54;96593.41;4975451;28;20201;-68
2021/09/12 07:08:04;;;;;;;5.90;5.50;;;;;;;18.25;90.28;96588.34;4976706;28;20629;-62
2021/09/12 07:10:30;;;;;;;4.97;4.57;;;;;;;18.30;90.47;96593.66;4976477;28;20260;-62
2021/09/12 07:12:55;;;;;;;5.30;4.77;;;;;;;18.34;89.71;96592.06;4975451;28;20185;-63
2021/09/12 07:15:21;;;;;;;4.57;4.27;;;;;;;18.40;89.40;96593.66;4976004;28;20673;-62
2021/09/12 07:17:46;;;;;;;4.67;4.37;;;;;;;18.45;89.18;96593.66;4989989;28;20184;-61
2021/09/12 07:20:12;;;;;;;5.67;5.17;;;;;;;18.52;89.17;96592.56;4995823;28;20198;-66
2021/09/12 07:22:38;;;;;;;5.00;4.60;;;;;;;18.55;89.09;96595.50;4995262;28;20181;-66
2021/09/12 07:25:04;;;;;;;5.30;4.80;;;;;;;18.60;88.97;96600.00;4995642;28;20440;-69
2021/09/12 07:27:30;;;;;;;5.47;4.43;;;;;;;18.62;89.21;96598.69;4995606;28;20170;-68
2021/09/12 07:29:55;;;;;;;8.70;5.03;;;;;;;18.67;89.29;96608.50;4985053;28;20829;-63
2021/09/12 07:32:21;;;;;;;8.67;4.20;;;;;;;18.61;89.04;96604.25;4976110;28;20182;-61
2021/09/12 07:34:46;;;;;;;4.80;4.50;;;;;;;18.67;88.89;96609.31;4975704;28;20193;-62
2021/09/12 07:37:11;;;;;;;4.97;4.57;;;;;;;18.61;87.80;96614.91;4975736;28;20185;-66
2021/09/12 07:39:37;;;;;;;5.17;4.37;;;;;;;18.60;88.26;96613.31;4975804;28;20265;-68
2021/09/12 07:42:02;;;;;;;4.70;4.30;;;;;;;18.71;88.14;96618.38;4975617;28;20174;-63
2021/09/12 07:44:28;;;;;;;5.07;4.40;;;;;;;18.68;88.35;96612.78;4975219;28;20221;-69
2021/09/12 07:46:53;;;;;;;4.87;4.47;;;;;;;18.73;88.62;96618.91;4975909;28;20253;-62
2021/09/12 07:49:19;;;;;;;4.97;4.60;;;;;;;18.87;88.12;96616.44;4975711;28;20225;-68
2021/09/12 07:51:45;;;;;;;4.93;4.53;;;;;;;18.93;88.31;96624.13;4975449;28;20216;-62
2021/09/12 07:54:10;;;;;;;5.23;4.77;;;;;;;19.01;88.14;96614.78;4975482;28;20792;-61
2021/09/12 07:56:35;;;;;;;8.63;4.30;;;;;;;19.08;88.36;96620.63;4975739;28;20190;-67
2021/09/12 07:59:01;;;;;;;5.37;4.87;;;;;;;19.17;88.81;96618.97;4976061;28;20224;-67
2021/09/12 08:01:26;;;;;;;4.63;4.23;;;;;;;19.18;87.94;96620.59;4974382;28;20182;-61
2021/09/12 08:03:51;;;;;;;4.67;4.37;;;;;;;19.26;88.48;96625.34;4975291;28;20209;-67
2021/09/12 08:06:17;;;;;;;4.63;4.33;;;;;;;19.32;88.15;96626.94;4975194;28;20202;-68
2021/09/12 08:08:42;;;;;;;5.13;4.63;;;;;;;19.24;87.83;96622.94;4975748;28;20189;-68
2021/09/12 08:11:08;;;;;;;4.37;4.07;;;;;;;19.28;87.55;96631.19;4975471;28;20206;-68
2021/09/12 08:13:33;;;;;;;4.67;4.27;;;;;;;19.37;83.78;96626.91;4974764;28;20180;-67
2021/09/12 08:15:59;;;;;;;4.63;4.33;;;;;;;19.43;84.59;96634.63;4975134;28;20194;-67
2021/09/12 08:18:24;;;;;;;4.10;3.80;;;;;;;19.42;84.83;96638.34;4993775;28;20177;-61
2021/09/12 08:20:50;;;;;;;4.03;3.73;;;;;;;19.49;84.47;96636.19;4987656;28;20166;-67
2021/09/12 08:23:15;;;;;;;5.20;4.00;;;;;;;19.58;84.45;96640.94;4974812;28;20178;-67
2021/09/12 08:25:40;;;;;;;3.83;3.50;;;;;;;19.65;84.07;96634.25;4975083;28;20186;-66
2021/09/12 08:28:06;;;;;;;4.70;4.30;;;;;;;19.70;84.60;96639.53;4974860;28;20182;-67
2021/09/12 08:30:31;;;;;;;4.17;3.87;;;;;;;19.70;83.38;96639.53;4974898;28;20562;-67
2021/09/12 08:32:57;;;;;;;3.53;3.33;;;;;;;19.78;83.51;96635.50;4972783;28;20702;-64
2021/09/12 08:35:22;;;;;;;4.10;3.70;;;;;;;19.83;83.14;96641.59;4971127;28;20206;-61
2021/09/12 08:37:47;;;;;;;3.60;3.30;;;;;;;19.89;83.10;96639.69;4970911;28;20269;-61
2021/09/12 08:40:13;;;;;;;3.70;3.40;;;;;;;19.98;82.75;96638.84;4971112;28;20178;-59
2021/09/12 08:42:42;;;;;;;3.40;3.20;;;;;;;20.06;82.49;96640.91;4970985;28;20656;-61
2021/09/12 08:45:08;;;;;;;3.77;3.47;;;;;;;20.06;80.34;96640.91;4970736;28;20216;-60
2021/09/12 08:47:34;;;;;;;3.50;3.20;;;;;;;20.19;79.93;96648.31;4971168;28;20897;-59
2021/09/12 08:50:00;;;;;;;3.00;2.80;;;;;;;20.24;78.93;96648.25;4971094;28;20735;-64
2021/09/12 08:52:25;;;;;;;3.50;3.20;;;;;;;20.35;80.22;96647.09;4971273;28;20414;-64
2021/09/12 08:54:51;;;;;;;3.30;3.00;;;;;;;20.46;81.73;96643.25;4970415;28;20210;-60
2021/09/12 08:57:17;;;;;;;3.10;2.90;;;;;;;20.56;79.13;96639.72;4970644;28;20178;-64
2021/09/12 08:59:48;;;;;;;3.80;3.27;;;;;;;20.64;79.74;96641.75;4971062;28;20217;-64
2021/09/12 09:02:13;;;;;;;3.40;3.20;;;;;;;20.69;79.92;96638.25;4969899;28;20264;-64
2021/09/12 09:04:38;;;;;;;2.67;2.47;;;;;;;20.66;77.03;96636.13;4970707;28;20528;-61
2021/09/12 09:07:09;;;;;;;2.47;2.33;;;;;;;20.61;73.46;96633.50;4970702;28;20174;-61
2021/09/12 09:09:46;;;;;;;2.40;2.20;;;;;;;20.64;72.50;96630.25;4970335;28;20217;-59
2021/09/12 09:12:24;;;;;;;2.60;2.40;;;;;;;20.68;70.38;96634.78;4972048;28;20445;-58
2021/09/12 09:15:06;;;;;;;2.97;2.77;;;;;;;20.80;73.13;96640.53;4973773;28;20467;-58
2021/09/12 09:17:48;;;;;;;3.00;2.77;;;;;;;20.84;74.55;96633.53;4985990;28;20780;-62
2021/09/12 09:20:29;;;;;;;3.00;2.80;;;;;;;20.88;74.51;96629.22;4985248;28;20421;-62
2021/09/12 09:22:58;;;;;;;2.83;2.63;;;;;;;20.87;73.57;96630.28;4974210;28;20456;-58
2021/09/12 09:25:29;;;;;;;2.73;2.53;;;;;;;20.85;71.64;96632.47;4974954;28;20809;-58
2021/09/12 09:28:21;;;;;;;2.80;2.60;;;;;;;21.02;72.47;96622.13;4978339;28;20425;-57
2021/09/12 09:30:57;;;;;;;4.43;3.13;;;;;;;21.19;75.16;96627.84;4976930;28;20528;-62
2021/09/12 09:33:29;;;;;;;2.50;2.40;;;;;;;21.18;73.91;96620.88;4978088;28;20451;-62
2021/09/12 09:36:06;;;;;;;2.97;2.77;;;;;;;21.35;75.14;96623.06;4978158;28;20900;-62
2021/09/12 09:38:35;;;;;;;2.73;2.43;;;;;;;21.31;71.71;96619.38;4978028;28;21007;-58
2021/09/12 09:41:00;;;;;;;2.50;2.30;;;;;;;21.48;72.51;96617.03;4976833;28;20920;-65
2021/09/12 09:43:39;;;;;;;3.83;2.50;;;;;;;21.54;72.51;96609.72;4971751;28;20426;-58
2021/09/12 09:46:05;;;;;;;2.50;2.40;;;;;;;21.50;68.25;96621.00;4977207;28;20621;-63
2021/09/12 09:48:35;;;;;;;3.23;2.93;;;;;;;21.68;71.61;96611.41;4975919;28;20525;-61
2021/09/12 09:51:03;;;;;;;2.63;2.43;;;;;;;21.75;72.86;96603.81;4977351;28;20535;-62
2021/09/12 09:53:34;;;;;;;2.70;2.60;;;;;;;21.80;74.49;96609.09;4975750;28;20433;-62
2021/09/12 09:56:01;;;;;;;3.87;2.60;;;;;;;21.86;74.60;96610.63;4977313;28;20437;-58
2021/09/12 09:58:27;;;;;;;3.07;2.80;;;;;;;21.95;74.28;96608.06;4977115;28;20853;-62
2021/09/12 10:00:53;;;;;;;2.60;2.40;;;;;;;21.99;74.73;96615.25;4977131;28;20513;-62
2021/09/12 10:03:21;;;;;;;3.17;2.70;;;;;;;22.01;74.98;96613.06;4976598;28;20692;-62
2021/09/12 10:05:46;;;;;;;3.00;2.80;;;;;;;21.99;75.81;96619.81;4977027;28;20205;-62
2021/09/12 10:08:12;;;;;;;4.43;3.07;;;;;;;21.97;76.75;96619.28;4976670;28;20757;-62
2021/09/12 10:10:38;;;;;;;4.63;2.73;;;;;;;21.96;76.72;96623.06;4976917;28;20194;-56
2021/09/12 10:13:06;;;;;;;3.13;2.83;;;;;;;21.95;76.63;96627.63;4975819;28;20429;-57
2021/09/12 10:15:34;;;;;;;2.53;2.33;;;;;;;21.98;76.50;96620.88;4977063;28;20202;-61
2021/09/12 10:18:01;;;;;;;3.27;3.07;;;;;;;21.98;76.67;96607.50;4986284;28;20812;-60
2021/09/12 10:20:28;;;;;;;3.77;3.47;;;;;;;21.99;76.22;96614.44;4977538;28;20429;-67
2021/09/12 10:22:56;;;;;;;4.03;2.60;;;;;;;21.92;72.23;96606.78;4976940;28;20409;-68
2021/09/12 10:25:26;;;;;;;2.77;2.60;;;;;;;22.05;71.30;96603.34;4977148;28;20908;-60
2021/09/12 10:28:06;;;;;;;2.87;2.50;;;;;;;22.16;67.91;96598.63;4977291;28;20416;-60
2021/09/12 10:30:41;;;;;;;3.17;2.87;;;;;;;22.23;69.19;96605.19;4976371;28;20531;-57
2021/09/12 10:33:07;;;;;;;2.50;2.30;;;;;;;22.37;71.48;96603.34;4976231;28;20424;-65
2021/09/12 10:35:50;;;;;;;2.50;2.30;;;;;;;22.41;69.57;96595.53;4977017;28;20429;-58
2021/09/12 10:38:26;;;;;;;3.03;2.83;;;;;;;22.48;66.93;96596.72;4976852;28;20224;-61
2021/09/12 10:40:51;;;;;;;2.57;2.40;;;;;;;22.59;68.02;96591.22;4977173;28;20876;-67
2021/09/12 10:43:25;;;;;;;2.60;2.40;;;;;;;22.69;68.51;96594.50;4976319;28;20432;-64
2021/09/12 10:46:09;;;;;;;2.43;2.23;;;;;;;22.76;65.93;96589.56;4976883;28;20316;-59
2021/09/12 10:48:36;;;;;;;2.60;2.40;;;;;;;22.65;64.13;96585.47;4976545;28;20413;-62
2021/09/12 10:51:06;;;;;;;2.80;2.47;;;;;;;22.91;65.79;96583.91;4976436;28;20457;-60
2021/09/12 10:53:44;;;;;;;2.90;2.70;;;;;;;23.16;68.66;96585.28;4976483;28;20402;-64
2021/09/12 10:56:19;;;;;;;3.40;2.60;;;;;;;23.25;67.95;96588.84;4975417;28;20496;-62
2021/09/12 10:58:48;;;;;;;2.93;2.73;;;;;;;23.42;67.32;96587.19;4976300;28;20892;-61
2021/09/12 11:01:37;;;;;;;3.00;2.80;;;;;;;23.55;65.64;96596.28;4976640;28;20901;-65
2021/09/12 11:04:04;;;;;;;2.53;2.33;;;;;;;23.65;65.80;96574.56;4976219;28;20778;-59
2021/09/12 11:06:31;;;;;;;2.40;2.30;;;;;;;23.73;65.87;96571.19;4976237;28;20441;-63
2021/09/12 11:08:58;;;;;;;2.40;2.23;;;;;;;23.82;66.11;96576.63;4976762;28;20421;-60
2021/09/12 11:11:24;;;;;;;2.30;2.20;;;;;;;23.71;63.51;96576.06;4976509;28;20453;-60
2021/09/12 11:13:54;;;;;;;2.10;1.90;;;;;;;23.71;63.39;96578.75;4976075;28;20762;-60
2021/09/12 11:16:22;;;;;;;2.50;2.30;;;;;;;23.69;61.86;96577.44;4978524;28;20436;-61
2021/09/12 11:18:59;;;;;;;2.50;2.30;;;;;;;23.75;60.08;96568.97;4994850;28;20967;-61
2021/09/12 11:21:24;;;;;;;2.90;2.67;;;;;;;23.70;63.47;96563.72;4976266;28;20793;-56
2021/09/12 11:23:58;;;;;;;3.13;2.93;;;;;;;23.69;65.35;96564.03;4975998;28;20422;-58
2021/09/12 11:26:23;;;;;;;2.70;2.60;;;;;;;23.70;65.77;96568.31;4976102;28;20296;-60
2021/09/12 11:29:00;;;;;;;3.90;2.70;;;;;;;23.69;66.07;96561.34;4976290;28;20437;-55
2021/09/12 11:31:30;;;;;;;2.60;2.40;;;;;;;23.66;64.40;96560.03;4976441;28;20225;-58